Time;durP1;ratioP1;P1;durP2;ratioP2;P2;SDS_P1;SDS_P2;PMS_P1;PMS_P2;Temp;Humidity;BMP_temperature;BMP_pressure;BME280_temperature;BME280_humidity;BME280_pressure;Samples;Min_cycle;Max_cycle;Signal;HPM_P1;HPM_P2
2022/05/21 00:01:22;;;;;;;;;;;;;;;15.00;57.96;98832.38;1729401;83;20438;-66
2022/05/21 00:03:44;;;;;;;;;;;;;;;15.00;58.03;98834.56;1737294;82;20087;-66
2022/05/21 00:06:19;;;;;;;;;;;;;;;14.98;58.24;98831.36;1729145;82;20099;-66
2022/05/21 00:08:48;;;;;;;;;;;;;;;14.96;58.55;98819.87;1729239;82;20118;-66
2022/05/21 00:11:16;;;;;;;;;;;;;;;14.97;58.88;98817.32;1729106;82;20163;-66
2022/05/21 00:13:48;;;;;;;;;;;;;;;14.99;58.92;98812.81;1729261;82;20094;-66
2022/05/21 00:16:11;;;;;;;;;;;;;;;14.98;59.08;98800.95;1727851;82;20071;-66
2022/05/21 00:18:43;;;;;;;;;;;;;;;15.01;59.36;98811.87;1749967;82;21260;-66
2022/05/21 00:21:12;;;;;;;;;;;;;;;14.99;59.46;98798.41;1694346;83;20141;-66
2022/05/21 00:23:43;;;;;;;;;;;;;;;14.98;59.89;98795.43;1728087;81;20075;-66
2022/05/21 00:26:11;;;;;;;;;;;;;;;14.96;60.33;98804.67;1729032;82;20104;-66
2022/05/21 00:28:40;;;;;;;;;;;;;;;14.93;60.57;98792.95;1729364;82;20405;-67
2022/05/21 00:31:09;;;;;;;;;;;;;;;14.90;60.94;98793.67;1729207;82;20103;-66
2022/05/21 00:33:42;;;;;;;;;;;;;;;14.87;61.21;98798.55;1729143;83;20118;-66
2022/05/21 00:38:40;;;;;;;;;;;;;;;14.78;62.09;98804.28;1707417;83;20115;-66
2022/05/21 00:41:22;;;;;;;;;;;;;;;14.77;62.18;98812.34;1729125;83;20134;-66
2022/05/21 00:43:52;;;;;;;;;;;;;;;14.76;62.43;98814.09;1729393;82;21243;-67
2022/05/21 00:46:29;;;;;;;;;;;;;;;14.73;62.59;98810.09;1725849;82;20083;-66
2022/05/21 00:49:10;;;;;;;;;;;;;;;14.70;62.89;98806.66;1748171;82;20091;-66
2022/05/21 00:51:52;;;;;;;;;;;;;;;14.67;63.13;98811.53;1748006;82;20083;-66
2022/05/21 00:54:25;;;;;;;;;;;;;;;14.63;63.55;98820.89;1747432;82;20142;-66
2022/05/21 00:56:53;;;;;;;;;;;;;;;14.59;63.78;98816.67;1751072;82;20679;-66
2022/05/21 01:02:06;;;;;;;;;;;;;;;14.54;64.40;98823.84;1748381;82;20118;-66
2022/05/21 01:04:33;;;;;;;;;;;;;;;14.51;64.62;98823.98;1743020;82;20083;-66
2022/05/21 01:07:06;;;;;;;;;;;;;;;14.50;64.86;98824.34;1725743;82;20119;-66
2022/05/21 01:09:34;;;;;;;;;;;;;;;14.47;65.05;98831.39;1726754;82;20112;-66
2022/05/21 01:12:07;;;;;;;;;;;;;;;14.46;65.35;98826.22;1725772;82;20099;-66
2022/05/21 01:14:34;;;;;;;;;;;;;;;14.43;65.79;98827.77;1747540;81;20181;-66
2022/05/21 01:17:06;;;;;;;;;;;;;;;14.44;65.97;98825.81;1747969;81;20123;-66
2022/05/21 01:19:55;;;;;;;;;;;;;;;14.43;66.32;98831.11;1728313;82;20425;-66
2022/05/21 01:22:33;;;;;;;;;;;;;;;14.42;66.57;98830.31;1748086;80;21108;-67
2022/05/21 01:25:00;;;;;;;;;;;;;;;14.41;66.98;98828.71;1747534;82;37443;-67
2022/05/21 01:27:30;;;;;;;;;;;;;;;14.40;67.15;98832.59;1748089;82;20099;-67
2022/05/21 01:30:05;;;;;;;;;;;;;;;14.41;67.72;98830.64;1725731;82;20111;-67
2022/05/21 01:32:33;;;;;;;;;;;;;;;14.43;67.88;98825.59;1747305;82;20118;-66
2022/05/21 01:35:04;;;;;;;;;;;;;;;14.42;68.02;98823.98;1745203;82;21249;-67
2022/05/21 01:37:36;;;;;;;;;;;;;;;14.42;68.60;98827.55;1746537;82;20494;-66
2022/05/21 01:40:11;;;;;;;;;;;;;;;14.44;68.68;98816.91;1748046;81;20458;-67
2022/05/21 01:42:40;;;;;;;;;;;;;;;14.44;68.88;98819.67;1743017;82;20452;-67
2022/05/21 01:45:28;;;;;;;;;;;;;;;14.44;69.21;98818.91;1720121;82;20477;-67
2022/05/21 01:47:45;;;;;;;;;;;;;;;14.44;69.22;98812.77;1749890;82;21115;-67
2022/05/21 01:50:13;;;;;;;;;;;;;;;14.43;69.29;98809.83;1732704;82;20102;-67
2022/05/21 01:52:48;;;;;;;;;;;;;;;14.42;69.43;98811.56;1751735;82;20460;-66
2022/05/21 01:55:16;;;;;;;;;;;;;;;14.39;69.41;98808.91;1705887;83;20447;-66
2022/05/21 01:57:43;;;;;;;;;;;;;;;14.37;70.06;98807.66;1752126;82;20102;-66
2022/05/21 02:00:12;;;;;;;;;;;;;;;14.37;70.09;98806.28;1736686;82;21979;-66
2022/05/21 02:02:39;;;;;;;;;;;;;;;14.35;70.38;98808.02;1738234;82;20461;-67
2022/05/21 02:05:12;;;;;;;;;;;;;;;14.33;70.68;98798.49;1735965;82;20072;-66
2022/05/21 02:10:22;;;;;;;;;;;;;;;14.32;70.93;98793.55;1717435;82;20106;-66
2022/05/21 02:12:53;;;;;;;;;;;;;;;14.30;71.17;98794.49;1751558;82;21174;-67
2022/05/21 02:15:18;;;;;;;;;;;;;;;14.29;71.34;98795.65;1732215;82;20141;-67
2022/05/21 02:17:51;;;;;;;;;;;;;;;14.27;71.68;98797.97;1752278;82;20121;-66
2022/05/21 02:20:22;;;;;;;;;;;;;;;14.26;72.04;98795.56;1716464;83;20139;-66
2022/05/21 02:22:55;;;;;;;;;;;;;;;14.25;72.31;98791.20;1752053;80;20145;-66
2022/05/21 02:25:25;;;;;;;;;;;;;;;14.24;72.33;98792.36;1736398;82;21155;-65
2022/05/21 02:27:57;;;;;;;;;;;;;;;14.24;72.41;98800.06;1736203;82;20115;-65
2022/05/21 02:30:30;;;;;;;;;;;;;;;14.23;72.73;98794.31;1733257;82;20408;-65
2022/05/21 02:32:55;;;;;;;;;;;;;;;14.24;72.69;98795.13;1751954;81;20125;-65
2022/05/21 02:35:28;;;;;;;;;;;;;;;14.22;73.01;98799.62;1727002;82;20122;-65
2022/05/21 02:40:51;;;;;;;;;;;;;;;14.20;73.37;98799.98;1747853;82;20165;-65
2022/05/21 02:43:12;;;;;;;;;;;;;;;14.20;73.46;98787.55;1748071;82;20461;-65
2022/05/21 02:45:51;;;;;;;;;;;;;;;14.23;73.65;98793.52;1748890;82;20142;-65
2022/05/21 02:48:17;;;;;;;;;;;;;;;14.24;73.77;98787.64;1748708;82;20113;-65
2022/05/21 02:50:46;;;;;;;;;;;;;;;14.26;73.70;98788.08;1715948;83;21230;-65
2022/05/21 02:53:17;;;;;;;;;;;;;;;14.27;73.76;98780.60;1749192;82;20469;-65
2022/05/21 02:55:56;;;;;;;;;;;;;;;14.26;73.89;98785.33;1715957;83;20076;-65
2022/05/21 02:58:19;;;;;;;;;;;;;;;14.26;74.15;98785.33;1747892;82;20126;-65
2022/05/21 03:00:52;;;;;;;;;;;;;;;14.28;74.22;98784.38;1704853;83;20100;-65
2022/05/21 03:03:27;;;;;;;;;;;;;;;14.32;74.33;98792.75;1715930;83;21880;-65
2022/05/21 03:05:56;;;;;;;;;;;;;;;14.35;74.47;98781.79;1748618;82;20125;-65
2022/05/21 03:11:16;;;;;;;;;;;;;;;14.45;74.44;98771.58;1720857;82;20150;-65
2022/05/21 03:16:19;;;;;;;;;;;;;;;14.60;74.27;98759.47;1700150;83;21135;-65
2022/05/21 03:18:53;;;;;;;;;;;;;;;14.66;74.24;98761.59;1749161;82;20185;-70
2022/05/21 03:21:29;;;;;;;;;;;;;;;14.72;74.14;98767.05;1715323;83;20115;-64
2022/05/21 03:23:55;;;;;;;;;;;;;;;14.76;74.07;98748.58;1748071;80;20153;-65
2022/05/21 03:26:26;;;;;;;;;;;;;;;14.80;73.94;98750.84;1714981;83;20119;-65
2022/05/21 03:28:56;;;;;;;;;;;;;;;14.85;73.74;98753.31;1748800;81;21149;-65
2022/05/21 03:31:28;;;;;;;;;;;;;;;14.92;73.45;98756.01;1698950;83;20099;-64
2022/05/21 03:33:57;;;;;;;;;;;;;;;14.97;73.21;98757.10;1749221;82;20449;-65
2022/05/21 03:36:23;;;;;;;;;;;;;;;15.04;73.19;98757.22;1716131;83;20452;-65
2022/05/21 03:38:55;;;;;;;;;;;;;;;15.11;73.11;98761.51;1749407;82;20145;-65
2022/05/21 03:41:28;;;;;;;;;;;;;;;15.19;73.10;98759.91;1693538;83;20111;-65
2022/05/21 03:44:04;;;;;;;;;;;;;;;15.26;72.62;98763.39;1721764;81;20508;-65
2022/05/21 03:46:28;;;;;;;;;;;;;;;15.35;72.42;98752.09;1735774;82;20095;-65
2022/05/21 03:48:58;;;;;;;;;;;;;;;15.42;71.82;98742.55;1718432;83;20116;-65
2022/05/21 03:51:29;;;;;;;;;;;;;;;15.49;71.55;98724.12;1723087;83;20083;-65
2022/05/21 03:54:00;;;;;;;;;;;;;;;15.58;71.18;98720.34;1724507;82;21798;-65
2022/05/21 03:56:29;;;;;;;;;;;;;;;15.66;71.12;98724.22;1716088;83;20099;-65
2022/05/21 03:59:03;;;;;;;;;;;;;;;15.74;70.93;98723.77;1721071;82;20121;-65
2022/05/21 04:01:30;;;;;;;;;;;;;;;15.81;70.51;98714.99;1749448;82;20114;-66
2022/05/21 04:04:01;;;;;;;;;;;;;;;15.88;70.57;98720.43;1721515;82;20142;-66
2022/05/21 04:06:31;;;;;;;;;;;;;;;15.94;70.45;98724.48;1716100;83;21166;-66
2022/05/21 04:08:56;;;;;;;;;;;;;;;16.01;69.76;98723.22;1748733;82;20464;-66
2022/05/21 04:11:36;;;;;;;;;;;;;;;16.09;69.90;98731.27;1721465;82;20137;-67
2022/05/21 04:14:08;;;;;;;;;;;;;;;16.19;69.55;98724.27;1705937;83;20415;-66
2022/05/21 04:16:39;;;;;;;;;;;;;;;16.27;69.23;98723.20;1749473;82;20114;-66
2022/05/21 04:19:13;;;;;;;;;;;;;;;16.36;69.03;98734.00;1699735;83;20150;-66
2022/05/21 04:21:37;;;;;;;;;;;;;;;16.47;68.85;98726.65;1748363;82;20750;-66
2022/05/21 04:24:05;;;;;;;;;;;;;;;16.57;68.23;98728.77;1715959;82;20171;-66
2022/05/21 04:26:33;;;;;;;;;;;;;;;16.65;68.16;98731.08;1749258;82;20146;-66
2022/05/21 04:29:02;;;;;;;;;;;;;;;16.75;67.73;98733.20;1715696;83;20095;-66
2022/05/21 04:31:41;;;;;;;;;;;;;;;16.84;66.94;98719.82;1749046;82;22154;-66
2022/05/21 04:34:01;;;;;;;;;;;;;;;16.94;66.95;98723.31;1747947;82;20133;-66
2022/05/21 04:36:31;;;;;;;;;;;;;;;17.04;66.78;98718.48;1722889;83;20167;-67
2022/05/21 04:39:00;;;;;;;;;;;;;;;17.15;65.41;98715.25;1748011;82;20125;-66
2022/05/21 04:41:33;;;;;;;;;;;;;;;17.24;65.49;98708.01;1735447;82;20083;-66
2022/05/21 04:43:57;;;;;;;;;;;;;;;17.33;65.25;98691.83;1748435;81;21706;-66
2022/05/21 04:46:27;;;;;;;;;;;;;;;17.46;65.21;98693.15;1749338;82;20106;-66
2022/05/21 04:48:52;;;;;;;;;;;;;;;17.61;64.67;98685.75;1748999;82;20481;-67
2022/05/21 04:51:21;;;;;;;;;;;;;;;17.76;64.51;98690.87;1749274;82;20110;-66
2022/05/21 04:53:50;;;;;;;;;;;;;;;17.88;64.52;98684.22;1749369;82;20109;-66
2022/05/21 04:56:19;;;;;;;;;;;;;;;17.96;64.25;98691.39;1749298;82;21182;-66
2022/05/21 04:58:50;;;;;;;;;;;;;;;18.03;64.38;98692.83;1749130;82;20110;-66
2022/05/21 05:01:23;;;;;;;;;;;;;;;18.09;63.65;98679.59;1722328;83;20164;-67
2022/05/21 05:03:49;;;;;;;;;;;;;;;18.14;63.42;98678.44;1748698;82;20151;-67
2022/05/21 05:06:17;;;;;;;;;;;;;;;18.20;63.47;98673.31;1712193;83;20127;-66
2022/05/21 05:08:45;;;;;;;;;;;;;;;18.27;62.82;98664.42;1749488;82;21123;-66
2022/05/21 05:11:16;;;;;;;;;;;;;;;18.36;63.24;98666.27;1749027;80;20186;-67
2022/05/21 05:13:49;;;;;;;;;;;;;;;18.48;62.71;98667.92;1722861;83;20083;-67
2022/05/21 05:16:19;;;;;;;;;;;;;;;18.60;62.44;98657.02;1748647;82;20484;-67
2022/05/21 05:18:50;;;;;;;;;;;;;;;18.74;62.99;98658.51;1692088;83;20468;-67
2022/05/21 05:21:21;;;;;;;;;;;;;;;18.88;62.54;98646.64;1722916;83;22005;-67
2022/05/21 05:23:50;;;;;;;;;;;;;;;19.00;61.23;98639.33;1747872;80;20110;-67
2022/05/21 05:26:17;;;;;;;;;;;;;;;19.11;61.06;98645.09;1733682;82;20465;-67
2022/05/21 05:28:45;;;;;;;;;;;;;;;19.19;60.36;98641.73;1736230;82;20478;-67
2022/05/21 05:31:22;;;;;;;;;;;;;;;19.27;60.05;98634.19;1709939;82;20096;-66
2022/05/21 05:33:54;;;;;;;;;;;;;;;19.33;60.31;98635.39;1709571;83;21136;-66
2022/05/21 05:36:16;;;;;;;;;;;;;;;19.40;59.54;98627.84;1693378;84;20141;-67
2022/05/21 05:38:48;;;;;;;;;;;;;;;19.45;59.86;98626.05;1719599;83;20100;-66
2022/05/21 05:41:15;;;;;;;;;;;;;;;19.50;60.46;98624.86;1663602;85;20131;-67
2022/05/21 05:43:46;;;;;;;;;;;;;;;19.51;60.41;98624.27;1671938;85;20086;-67
2022/05/21 05:46:12;;;;;;;;;;;;;;;19.48;59.05;98623.08;1720005;83;21813;-67
2022/05/21 05:48:39;;;;;;;;;;;;;;;19.48;59.36;98626.45;1689910;84;20127;-68
2022/05/21 05:51:08;;;;;;;;;;;;;;;19.52;59.20;98624.50;1700038;84;20147;-68
2022/05/21 05:53:37;;;;;;;;;;;;;;;19.65;59.05;98625.66;1692417;84;20112;-66
2022/05/21 05:56:12;;;;;;;;;;;;;;;19.83;59.17;98624.27;1700054;83;20117;-73
2022/05/21 06:01:23;;;;;;;;;;;;;;;20.14;58.39;98619.83;1699901;83;20093;-66
2022/05/21 06:03:56;;;;;;;;;;;;;;;20.27;57.14;98613.40;1684753;84;20097;-67
2022/05/21 06:06:31;;;;;;;;;;;;;;;20.45;57.53;98603.61;1699959;83;20398;-66
2022/05/21 06:09:02;;;;;;;;;;;;;;;20.60;55.74;98599.56;1710500;81;20436;-67
2022/05/21 06:11:37;;;;;;;;;;;;;;;20.66;54.50;98597.95;1699769;83;21827;-66
2022/05/21 06:14:06;;;;;;;;;;;;;;;20.64;53.95;98596.77;1685427;84;20101;-67
2022/05/21 06:16:37;;;;;;;;;;;;;;;20.60;54.05;98605.14;1698275;83;20185;-67
2022/05/21 06:19:07;;;;;;;;;;;;;;;20.60;54.36;98606.54;1685124;84;20089;-66
2022/05/21 06:21:36;;;;;;;;;;;;;;;20.71;55.40;98602.31;1699743;84;20121;-66
2022/05/21 06:24:06;;;;;;;;;;;;;;;20.91;54.54;98597.78;1694857;83;21227;-66
2022/05/21 06:26:32;;;;;;;;;;;;;;;21.06;53.82;98595.70;1699855;84;20073;-66
2022/05/21 06:29:00;;;;;;;;;;;;;;;21.10;53.65;98603.45;1699459;84;20077;-66
2022/05/21 06:31:29;;;;;;;;;;;;;;;21.08;52.82;98603.06;1684400;84;20121;-66
2022/05/21 06:34:16;;;;;;;;;;;;;;;21.05;52.94;98603.28;1699981;84;20093;-66
2022/05/21 06:36:34;;;;;;;;;;;;;;;21.03;52.38;98598.70;1695141;84;21872;-66
2022/05/21 06:39:02;;;;;;;;;;;;;;;21.01;52.54;98592.74;1699414;83;20097;-66
2022/05/21 06:41:31;;;;;;;;;;;;;;;21.06;52.49;98581.75;1699287;84;20453;-66
2022/05/21 06:44:01;;;;;;;;;;;;;;;21.11;52.90;98582.72;1691399;84;20451;-66
2022/05/21 06:46:28;;;;;;;;;;;;;;;21.18;52.98;98583.27;1700236;83;20097;-66
2022/05/21 06:48:56;;;;;;;;;;;;;;;21.27;51.89;98578.84;1701884;84;21065;-66
2022/05/21 06:51:31;;;;;;;;;;;;;;;21.38;52.19;98578.73;1700915;83;20113;-66
2022/05/21 06:53:56;;;;;;;;;;;;;;;21.48;52.05;98574.27;1719124;83;20148;-66
2022/05/21 06:56:29;;;;;;;;;;;;;;;21.57;51.16;98567.61;1687039;84;20414;-66
2022/05/21 06:58:56;;;;;;;;;;;;;;;21.62;51.09;98568.55;1692332;83;20112;-66
2022/05/21 07:01:26;;;;;;;;;;;;;;;21.70;51.08;98565.28;1670651;85;20085;-66
2022/05/21 07:03:58;;;;;;;;;;;;;;;21.77;51.15;98565.82;1718440;83;20137;-67
2022/05/21 07:09:15;;;;;;;;;;;;;;;22.11;50.20;98565.07;1689310;85;20144;-66
2022/05/21 07:11:47;;;;;;;;;;;;;;;22.33;50.06;98558.02;1694062;84;20074;-67
2022/05/21 07:14:14;;;;;;;;;;;;;;;22.52;49.69;98548.99;1692963;83;20472;-66
2022/05/21 07:16:42;;;;;;;;;;;;;;;22.64;48.23;98549.01;1689309;85;20126;-66
2022/05/21 07:19:12;;;;;;;;;;;;;;;22.66;48.49;98529.80;1694323;84;20265;-66
2022/05/21 07:21:39;;;;;;;;;;;;;;;22.72;48.37;98525.31;1719580;83;20100;-66
2022/05/21 07:24:09;;;;;;;;;;;;;;;22.88;47.81;98512.92;1689310;83;20170;-66
2022/05/21 07:26:42;;;;;;;;;;;;;;;23.08;48.37;98510.82;1692194;84;20125;-66
2022/05/21 07:29:14;;;;;;;;;;;;;;;23.34;47.80;98500.16;1711933;82;20101;-68
2022/05/21 07:31:44;;;;;;;;;;;;;;;23.54;47.16;98498.23;1715541;83;21117;-68
2022/05/21 07:34:12;;;;;;;;;;;;;;;23.65;46.48;98509.23;1740490;81;20111;-69
2022/05/21 07:36:43;;;;;;;;;;;;;;;23.67;46.28;98505.41;1705469;83;20524;-68
2022/05/21 07:39:10;;;;;;;;;;;;;;;23.64;45.98;98507.66;1748251;82;20647;-69
2022/05/21 07:41:36;;;;;;;;;;;;;;;23.56;46.12;98511.20;1749605;82;20448;-69
2022/05/21 07:44:06;;;;;;;;;;;;;;;23.50;46.33;98510.08;1748690;82;20433;-68
2022/05/21 07:46:33;;;;;;;;;;;;;;;23.54;46.38;98499.63;1748808;82;20133;-68
2022/05/21 07:48:59;;;;;;;;;;;;;;;23.69;46.89;98498.13;1749345;82;20145;-68
2022/05/21 07:51:27;;;;;;;;;;;;;;;23.83;46.25;98491.45;1721973;82;20166;-69
2022/05/21 07:53:56;;;;;;;;;;;;;;;23.88;46.63;98493.76;1749325;82;20121;-69
2022/05/21 07:56:26;;;;;;;;;;;;;;;23.92;46.53;98493.69;1749346;82;20142;-68
2022/05/21 07:58:53;;;;;;;;;;;;;;;23.92;45.52;98497.28;1740424;82;20126;-68
2022/05/21 08:01:23;;;;;;;;;;;;;;;23.86;45.68;98491.20;1722002;82;20114;-68
2022/05/21 08:03:50;;;;;;;;;;;;;;;23.78;46.88;98486.34;1749120;82;21771;-68
2022/05/21 08:06:18;;;;;;;;;;;;;;;23.75;47.07;98486.42;1749438;82;20456;-68
2022/05/21 08:08:46;;;;;;;;;;;;;;;23.81;46.77;98483.30;1748455;82;20121;-71
2022/05/21 08:11:14;;;;;;;;;;;;;;;23.94;46.53;98480.03;1748532;82;20141;-76
2022/05/21 08:13:40;;;;;;;;;;;;;;;24.16;47.06;98472.77;1714419;82;20140;-74
2022/05/21 08:16:08;;;;;;;;;;;;;;;24.50;46.39;98467.44;1709709;84;21130;-71
2022/05/21 08:18:37;;;;;;;;;;;;;;;24.79;45.59;98452.93;1713231;83;20154;-77
2022/05/21 08:21:03;;;;;;;;;;;;;;;25.03;44.29;98450.75;1697764;84;20118;-79
2022/05/21 08:29:03;;;;;;;;;;;;;;;25.65;43.30;98443.89;1729569;82;21226;-69
2022/05/21 08:31:27;;;;;;;;;;;;;;;25.75;42.90;98442.64;1723987;82;20167;-70
2022/05/21 08:33:53;;;;;;;;;;;;;;;25.84;42.90;98439.97;1719238;83;20112;-70
2022/05/21 08:36:24;;;;;;;;;;;;;;;25.90;42.29;98436.78;1692470;83;20160;-73
2022/05/21 08:38:53;;;;;;;;;;;;;;;25.84;42.50;98435.14;1718902;83;20124;-75
2022/05/21 08:41:27;;;;;;;;;;;;;;;25.76;42.12;98432.36;1719325;83;21093;-74
2022/05/21 08:44:08;;;;;;;;;;;;;;;25.59;42.20;98423.16;1719351;83;20455;-69
2022/05/21 08:46:54;;;;;;;;;;;;;;;25.40;42.60;98417.70;1720888;83;20116;-69
2022/05/21 08:49:33;;;;;;;;;;;;;;;25.17;42.97;98420.11;1722598;83;20119;-78
2022/05/21 08:52:17;;;;;;;;;;;;;;;24.91;43.30;98414.31;1722085;83;20144;-79
2022/05/21 08:54:48;;;;;;;;;;;;;;;24.65;44.53;98416.78;1722843;83;21124;-73
2022/05/21 08:57:24;;;;;;;;;;;;;;;24.40;45.00;98423.59;1728905;82;20112;-75
2022/05/21 09:00:04;;;;;;;;;;;;;;;24.20;46.03;98431.43;1714170;83;20104;-79
2022/05/21 09:02:32;;;;;;;;;;;;;;;23.92;45.70;98458.66;1688879;84;20429;-69
2022/05/21 09:05:04;;;;;;;;;;;;;;;23.61;48.27;98501.52;1722869;83;20100;-70
2022/05/21 09:07:51;;;;;;;;;;;;;;;23.28;51.67;98517.26;1722125;83;21249;-74
2022/05/21 09:10:30;;;;;;;;;;;;;;;22.81;58.01;98542.41;1703985;84;20136;-73
2022/05/21 09:13:04;;;;;;;;;;;;;;;22.05;63.38;98529.80;1721963;83;20123;-70
2022/05/21 09:18:25;;;;;;;;;;;;;;;20.54;72.04;98538.46;1722973;83;20112;-68
2022/05/21 09:20:59;;;;;;;;;;;;;;;19.90;75.99;98544.28;1702880;83;21295;-69
2022/05/21 09:24:01;;;;;;;;;;;;;;;19.41;78.66;98538.19;1699915;83;20183;-69
2022/05/21 09:26:32;;;;;;;;;;;;;;;18.98;80.53;98525.70;1722741;83;20113;-69
2022/05/21 09:29:13;;;;;;;;;;;;;;;18.72;85.38;98512.95;1707355;83;20127;-71
2022/05/21 09:31:42;;;;;;;;;;;;;;;18.51;86.46;98516.25;1744048;82;20133;-72
2022/05/21 09:34:25;;;;;;;;;;;;;;;18.31;89.02;98526.34;1733257;83;21105;-74
2022/05/21 09:36:57;;;;;;;;;;;;;;;18.12;90.30;98494.72;1752427;82;20134;-71
2022/05/21 09:39:45;;;;;;;;;;;;;;;17.98;91.65;98481.57;1747861;82;20087;-69
2022/05/21 09:45:23;;;;;;;;;;;;;;;17.91;93.87;98469.67;1748004;81;20118;-68
2022/05/21 09:47:56;;;;;;;;;;;;;;;17.93;95.04;98475.00;1746919;82;21152;-68
2022/05/21 09:50:26;;;;;;;;;;;;;;;17.91;95.35;98492.64;1744190;82;20931;-73
2022/05/21 09:52:54;;;;;;;;;;;;;;;17.87;96.20;98488.29;1740473;82;20457;-70
2022/05/21 09:55:24;;;;;;;;;;;;;;;17.83;97.91;98491.05;1747907;82;20094;-71
2022/05/21 09:57:50;;;;;;;;;;;;;;;17.81;98.95;98487.87;1746800;82;20099;-75
2022/05/21 10:00:35;;;;;;;;;;;;;;;17.83;99.59;98483.31;1745653;82;22053;-69
2022/05/21 10:03:08;;;;;;;;;;;;;;;17.81;100.00;98490.05;1732962;82;20099;-72
2022/05/21 10:05:53;;;;;;;;;;;;;;;17.79;100.00;98488.25;1724757;82;20121;-70
2022/05/21 10:11:32;;;;;;;;;;;;;;;17.74;100.00;98476.14;1737767;82;20157;-70
2022/05/21 10:14:06;;;;;;;;;;;;;;;17.75;100.00;98459.69;1717555;83;21254;-70
2022/05/21 10:16:47;;;;;;;;;;;;;;;17.79;100.00;98445.82;1731572;80;20095;-69
2022/05/21 10:19:37;;;;;;;;;;;;;;;17.86;100.00;98433.95;1724493;82;20469;-70
2022/05/21 10:22:11;;;;;;;;;;;;;;;17.88;100.00;98429.60;1750821;82;20083;-69
2022/05/21 10:24:59;;;;;;;;;;;;;;;17.91;100.00;98430.80;1731646;83;20116;-71
2022/05/21 10:27:47;;;;;;;;;;;;;;;17.93;100.00;98436.73;1731384;83;22201;-70
2022/05/21 10:30:28;;;;;;;;;;;;;;;17.98;100.00;98431.59;1731138;83;20112;-69
2022/05/21 10:33:10;;;;;;;;;;;;;;;18.00;100.00;98425.05;1729792;83;20151;-69
2022/05/21 10:35:41;;;;;;;;;;;;;;;18.04;100.00;98416.73;1750884;82;20106;-71
2022/05/21 10:38:27;;;;;;;;;;;;;;;18.07;100.00;98416.74;1750848;81;20498;-70
2022/05/21 10:41:01;;;;;;;;;;;;;;;18.09;100.00;98406.04;1743497;82;20108;-71
2022/05/21 10:43:59;;;;;;;;;;;;;;;18.18;100.00;98409.03;1735592;82;20490;-70
2022/05/21 10:46:51;;;;;;;;;;;;;;;18.23;100.00;98394.16;1734254;81;20172;-71
2022/05/21 10:49:44;;;;;;;;;;;;;;;18.36;100.00;98390.41;1752622;82;20343;-70
2022/05/21 10:52:18;;;;;;;;;;;;;;;18.55;99.97;98386.43;1751386;80;20137;-70
2022/05/21 10:55:08;;;;;;;;;;;;;;;18.82;100.00;98373.75;1751482;82;21758;-70
2022/05/21 10:58:10;;;;;;;;;;;;;;;19.05;98.92;98376.10;1728697;82;20137;-69
2022/05/21 11:01:03;;;;;;;;;;;;;;;19.28;97.88;98365.29;1728008;82;20444;-70
2022/05/21 11:03:57;;;;;;;;;;;;;;;19.71;99.13;98361.75;1745770;82;20101;-71
2022/05/21 11:06:55;;;;;;;;;;;;;;;20.12;93.87;98351.38;1713258;82;20136;-68
2022/05/21 11:09:54;;;;;;;;;;;;;;;20.15;90.63;98356.14;1722184;83;21158;-71
2022/05/21 11:12:20;;;;;;;;;;;;;;;20.09;89.52;98361.34;1719623;83;20179;-70
2022/05/21 11:14:59;;;;;;;;;;;;;;;20.06;90.84;98363.55;1722842;83;20123;-71
2022/05/21 11:17:46;;;;;;;;;;;;;;;20.12;90.36;98361.13;1719110;83;20144;-68
2022/05/21 11:20:26;;;;;;;;;;;;;;;20.12;90.15;98348.59;1742031;80;20110;-68
2022/05/21 11:22:57;;;;;;;;;;;;;;;20.21;90.71;98347.54;1712840;83;21126;-70
2022/05/21 11:25:46;;;;;;;;;;;;;;;20.36;89.26;98343.42;1745662;82;20095;-68
2022/05/21 11:28:26;;;;;;;;;;;;;;;20.50;88.02;98343.14;1746469;82;20083;-67
2022/05/21 11:31:03;;;;;;;;;;;;;;;20.69;89.52;98332.22;1724687;82;20119;-68
2022/05/21 11:39:13;;;;;;;;;;;;;;;21.35;80.32;98310.21;1724030;82;20477;-68
2022/05/21 11:42:00;;;;;;;;;;;;;;;21.63;76.48;98297.86;1724596;82;20126;-68
2022/05/21 11:44:58;;;;;;;;;;;;;;;21.84;76.22;98293.98;1720817;82;20180;-68
2022/05/21 11:47:33;;;;;;;;;;;;;;;22.08;74.72;98289.42;1738527;81;20416;-68
2022/05/21 11:50:04;;;;;;;;;;;;;;;22.50;73.72;98282.17;1740639;82;21101;-69
2022/05/21 11:52:45;;;;;;;;;;;;;;;22.96;72.14;98268.73;1713876;82;20107;-68
2022/05/21 11:55:34;;;;;;;;;;;;;;;23.42;68.74;98261.38;1752201;82;20495;-68
2022/05/21 11:58:05;;;;;;;;;;;;;;;23.82;66.03;98241.09;1752472;82;20192;-69
2022/05/21 12:00:35;;;;;;;;;;;;;;;24.19;61.69;98247.60;1752687;81;20188;-68
2022/05/21 12:03:10;;;;;;;;;;;;;;;24.53;61.89;98247.14;1752548;81;21210;-69
2022/05/21 12:05:49;;;;;;;;;;;;;;;24.81;59.11;98242.79;1752610;82;20109;-69
2022/05/21 12:08:32;;;;;;;;;;;;;;;25.14;58.54;98229.44;1752847;81;20452;-71
2022/05/21 12:11:12;;;;;;;;;;;;;;;25.36;56.17;98221.17;1728213;82;20181;-69
2022/05/21 12:13:53;;;;;;;;;;;;;;;25.67;55.26;98213.00;1752431;82;20149;-69
2022/05/21 12:16:24;;;;;;;;;;;;;;;25.84;50.55;98206.66;1752498;81;21265;-69
2022/05/21 12:19:00;;;;;;;;;;;;;;;25.99;50.98;98201.53;1752588;82;20125;-69
2022/05/21 12:21:35;;;;;;;;;;;;;;;26.04;49.24;98185.30;1743208;81;20121;-69
2022/05/21 12:24:15;;;;;;;;;;;;;;;25.96;50.48;98201.02;1723624;81;20140;-69
2022/05/21 12:26:41;;;;;;;;;;;;;;;25.93;49.83;98196.92;1722499;83;20131;-69
2022/05/21 12:29:21;;;;;;;;;;;;;;;25.76;51.02;98190.64;1731722;82;21821;-68
2022/05/21 12:31:48;;;;;;;;;;;;;;;25.46;49.72;98194.75;1749373;82;20126;-71
2022/05/21 12:34:25;;;;;;;;;;;;;;;25.17;51.10;98192.04;1751788;81;20193;-70
2022/05/21 12:37:08;;;;;;;;;;;;;;;24.99;50.60;98195.37;1752365;82;20441;-68
2022/05/21 12:39:55;;;;;;;;;;;;;;;24.88;50.24;98189.85;1745261;80;20125;-69
2022/05/21 12:42:42;;;;;;;;;;;;;;;24.78;50.34;98194.56;1737571;82;21205;-69
2022/05/21 12:45:36;;;;;;;;;;;;;;;24.65;50.71;98196.53;1725795;82;20145;-69
2022/05/21 12:48:20;;;;;;;;;;;;;;;24.49;51.25;98183.33;1721904;80;20433;-68
2022/05/21 12:50:55;;;;;;;;;;;;;;;24.64;52.01;98187.33;1743332;82;20107;-69
2022/05/21 12:53:35;;;;;;;;;;;;;;;25.00;51.68;98181.50;1746000;82;20142;-69
2022/05/21 12:56:04;;;;;;;;;;;;;;;25.26;51.04;98183.75;1747083;80;21274;-69
2022/05/21 12:58:33;;;;;;;;;;;;;;;25.37;50.22;98172.80;1748354;82;20117;-68
2022/05/21 13:01:00;;;;;;;;;;;;;;;25.25;50.81;98163.91;1748835;82;20109;-68
2022/05/21 13:03:31;;;;;;;;;;;;;;;25.14;51.58;98166.88;1746690;80;20242;-69
2022/05/21 13:06:07;;;;;;;;;;;;;;;25.22;51.55;98161.22;1748439;80;20173;-69
2022/05/21 13:08:43;;;;;;;;;;;;;;;25.53;52.00;98158.01;1720689;82;20110;-69
2022/05/21 13:11:21;;;;;;;;;;;;;;;26.07;49.70;98154.87;1715140;83;20076;-68
2022/05/21 13:14:07;;;;;;;;;;;;;;;26.45;48.20;98156.20;1748926;82;20114;-68
2022/05/21 13:16:35;;;;;;;;;;;;;;;26.66;48.88;98142.74;1715787;83;20092;-69
2022/05/21 13:19:28;;;;;;;;;;;;;;;26.79;48.52;98156.13;1748907;82;20137;-69
2022/05/21 13:22:22;;;;;;;;;;;;;;;26.88;47.50;98157.61;1715602;83;20447;-69
2022/05/21 13:25:01;;;;;;;;;;;;;;;26.71;48.91;98158.25;1749114;82;20114;-68
2022/05/21 13:27:30;;;;;;;;;;;;;;;26.31;49.41;98155.45;1714465;83;20143;-68
2022/05/21 13:30:05;;;;;;;;;;;;;;;25.89;49.91;98145.03;1746514;82;20456;-68
2022/05/21 13:32:33;;;;;;;;;;;;;;;25.60;50.89;98138.73;1715158;83;20159;-68
2022/05/21 13:35:07;;;;;;;;;;;;;;;25.25;51.74;98125.22;1748390;82;22009;-68
2022/05/21 13:37:35;;;;;;;;;;;;;;;24.97;52.67;98129.67;1714548;83;20127;-67
2022/05/21 13:40:08;;;;;;;;;;;;;;;24.62;54.00;98128.68;1749065;82;20469;-67
2022/05/21 13:42:38;;;;;;;;;;;;;;;24.28;54.52;98127.20;1727047;82;20390;-67
2022/05/21 13:45:13;;;;;;;;;;;;;;;23.95;55.97;98138.28;1692855;83;20117;-68
2022/05/21 13:47:50;;;;;;;;;;;;;;;23.65;57.70;98143.04;1703548;82;21979;-68
2022/05/21 13:50:20;;;;;;;;;;;;;;;23.38;60.88;98166.25;1740185;82;20536;-68
2022/05/21 13:52:52;;;;;;;;;;;;;;;23.05;62.85;98194.80;1695494;83;20119;-67
2022/05/21 13:55:22;;;;;;;;;;;;;;;22.48;69.07;98200.70;1709098;82;20140;-68
2022/05/21 13:57:56;;;;;;;;;;;;;;;21.67;72.44;98209.23;1710912;83;20096;-67